createdAt,value
2019-04-26T00:00:59.586Z,6.90
2019-04-26T00:01:59.581Z,6.20
2019-04-26T00:02:59.559Z,7.30
2019-04-26T00:03:59.587Z,4.60
2019-04-26T00:04:59.572Z,6.70
2019-04-26T00:05:59.533Z,5.40
2019-04-26T00:06:59.525Z,7.80
2019-04-26T00:07:59.527Z,5.70
2019-04-26T00:08:59.499Z,7.50
2019-04-26T00:09:59.493Z,5.30
2019-04-26T00:10:59.545Z,6.40
2019-04-26T00:11:59.468Z,5.50
2019-04-26T00:12:59.468Z,7.30
2019-04-26T00:13:59.449Z,7.10
2019-04-26T00:14:59.438Z,5.40
2019-04-26T00:15:59.420Z,6.40
2019-04-26T00:16:59.693Z,6.10
2019-04-26T00:17:59.394Z,7.20
2019-04-26T00:18:59.433Z,6.20
2019-04-26T00:19:59.377Z,8.20
2019-04-26T00:20:59.360Z,7.50
2019-04-26T00:21:59.385Z,6.10
2019-04-26T00:22:59.359Z,8.80
2019-04-26T00:23:59.337Z,7.50
2019-04-26T00:25:11.407Z,5.70
2019-04-26T00:25:59.308Z,6.70
2019-04-26T00:26:59.291Z,6.40
2019-04-26T00:27:59.345Z,5.70
2019-04-26T00:28:59.274Z,6.10
2019-04-26T00:29:59.265Z,7.30
2019-04-26T00:30:59.252Z,7.60
2019-04-26T00:31:59.242Z,6.00
2019-04-26T00:32:59.265Z,7.30
2019-04-26T00:33:59.233Z,6.00
2019-04-26T00:34:59.208Z,6.90
2019-04-26T00:35:59.210Z,6.20
2019-04-26T00:36:59.180Z,5.90
2019-04-26T00:37:59.183Z,9.10
2019-04-26T00:38:59.194Z,7.40
2019-04-26T00:39:59.141Z,11.50
2019-04-26T00:40:59.154Z,9.30
2019-04-26T00:41:59.121Z,6.90
2019-04-26T00:42:59.113Z,8.00
2019-04-26T00:43:59.100Z,7.60
2019-04-26T00:44:59.119Z,10.00
2019-04-26T00:45:59.076Z,4.80
2019-04-26T00:46:59.095Z,7.90
2019-04-26T00:47:59.054Z,6.40
2019-04-26T00:48:59.055Z,8.20
2019-04-26T00:49:59.060Z,7.70
2019-04-26T00:50:59.028Z,6.10
2019-04-26T00:51:59.002Z,6.00
2019-04-26T00:52:58.991Z,6.60
2019-04-26T00:53:59.025Z,6.40
2019-04-26T00:54:58.975Z,6.90
2019-04-26T00:55:58.984Z,6.20
2019-04-26T00:56:58.968Z,9.20
2019-04-26T00:57:58.933Z,7.70
2019-04-26T00:58:58.926Z,6.00
2019-04-26T00:59:58.914Z,5.80
2019-04-26T01:00:58.942Z,7.80
2019-04-26T01:01:58.932Z,6.50
2019-04-26T01:02:58.889Z,4.60
2019-04-26T01:03:58.870Z,7.60
2019-04-26T01:04:58.857Z,5.90
2019-04-26T01:06:00.074Z,4.80
2019-04-26T01:06:58.878Z,7.40
2019-04-26T01:07:58.892Z,5.20
2019-04-26T01:08:58.808Z,6.70
2019-04-26T01:09:58.812Z,6.60
2019-04-26T01:10:58.815Z,7.20
2019-04-26T01:11:58.780Z,8.70
2019-04-26T01:12:58.787Z,5.10
2019-04-26T01:13:58.757Z,7.00
2019-04-26T01:14:58.766Z,5.30
2019-04-26T01:15:58.739Z,5.80
2019-04-26T01:16:58.730Z,7.10
2019-04-26T01:17:58.736Z,9.00
2019-04-26T01:18:58.705Z,5.70
2019-04-26T01:19:58.679Z,5.60
2019-04-26T01:20:58.678Z,6.80
2019-04-26T01:21:58.667Z,6.40
2019-04-26T01:22:58.651Z,10.00
2019-04-26T01:23:58.693Z,7.20
2019-04-26T01:24:58.622Z,7.60
2019-04-26T01:25:58.617Z,7.40
2019-04-26T01:26:58.611Z,6.00
2019-04-26T01:27:58.621Z,6.40
2019-04-26T01:28:58.635Z,7.70
2019-04-26T01:29:58.568Z,7.20
2019-04-26T01:30:58.563Z,7.20
2019-04-26T01:31:58.547Z,6.60
2019-04-26T01:32:58.602Z,6.90
2019-04-26T01:33:58.547Z,10.10
2019-04-26T01:34:58.554Z,7.60
2019-04-26T01:35:58.519Z,5.20
2019-04-26T01:36:58.589Z,4.80
2019-04-26T01:37:58.487Z,5.90
2019-04-26T01:38:58.470Z,9.00
2019-04-26T01:39:58.454Z,7.50
2019-04-26T01:40:58.466Z,5.20
2019-04-26T01:41:58.448Z,6.90
2019-04-26T01:42:58.422Z,7.30
2019-04-26T01:43:58.411Z,7.00
2019-04-26T01:44:58.454Z,5.40
2019-04-26T01:45:58.433Z,6.60
2019-04-26T01:46:58.369Z,6.70
2019-04-26T01:47:58.372Z,10.20
2019-04-26T01:48:58.362Z,8.00
2019-04-26T01:49:58.356Z,4.30
2019-04-26T01:50:58.354Z,7.20
2019-04-26T01:51:58.369Z,6.30
2019-04-26T01:52:58.314Z,6.80
2019-04-26T01:53:58.299Z,9.70
2019-04-26T01:54:58.283Z,8.60
2019-04-26T01:55:58.326Z,6.70
2019-04-26T01:56:58.258Z,8.40
2019-04-26T01:57:58.250Z,6.50
2019-04-26T01:58:58.277Z,5.20
2019-04-26T01:59:58.220Z,5.80
2019-04-26T02:00:58.222Z,5.80
2019-04-26T02:02:03.593Z,6.70
2019-04-26T02:02:58.196Z,7.90
2019-04-26T02:03:58.183Z,5.90
2019-04-26T02:04:58.223Z,6.10
2019-04-26T02:05:58.183Z,6.80
2019-04-26T02:06:58.147Z,6.40
2019-04-26T02:07:58.124Z,9.30
2019-04-26T02:08:59.013Z,6.40
2019-04-26T02:10:12.650Z,6.70
2019-04-26T02:10:58.092Z,8.70
2019-04-26T02:11:58.091Z,9.10
2019-04-26T02:12:58.066Z,6.80
2019-04-26T02:13:58.056Z,8.30
2019-04-26T02:14:58.085Z,6.40
2019-04-26T02:15:58.032Z,7.90
2019-04-26T02:16:58.030Z,7.20
2019-04-26T02:17:58.093Z,7.90
2019-04-26T02:18:58.504Z,7.80
2019-04-26T02:19:57.985Z,7.00
2019-04-26T02:20:58.064Z,7.90
2019-04-26T02:21:58.013Z,7.50
2019-04-26T02:22:57.955Z,10.20
2019-04-26T02:23:57.959Z,10.40
2019-04-26T02:24:57.925Z,7.30
2019-04-26T02:25:57.968Z,7.00
2019-04-26T02:26:57.917Z,5.70
2019-04-26T02:27:57.913Z,8.60
2019-04-26T02:28:57.914Z,6.40
2019-04-26T02:29:57.971Z,8.30
2019-04-26T02:30:57.874Z,5.50
2019-04-26T02:31:57.897Z,6.20
2019-04-26T02:32:57.869Z,10.20
2019-04-26T02:33:58.515Z,7.40
2019-04-26T02:34:57.864Z,8.20
2019-04-26T02:35:57.821Z,6.30
2019-04-26T02:36:59.041Z,6.20
2019-04-26T02:37:58.500Z,6.20
2019-04-26T02:38:57.805Z,7.70
2019-04-26T02:41:09.460Z,9.20
2019-04-26T02:42:09.449Z,7.80
2019-04-26T02:43:09.384Z,7.60
2019-04-26T02:44:09.495Z,9.70
2019-04-26T02:45:09.297Z,7.70
2019-04-26T02:46:09.278Z,6.90
2019-04-26T02:47:09.269Z,7.60
2019-04-26T02:48:09.255Z,7.50
2019-04-26T02:49:09.257Z,6.10
2019-04-26T02:50:09.267Z,6.50
2019-04-26T02:51:09.218Z,8.20
2019-04-26T02:52:09.234Z,9.30
2019-04-26T02:53:09.194Z,6.80
2019-04-26T02:54:09.192Z,8.30
2019-04-26T02:55:09.191Z,7.70
2019-04-26T02:56:09.159Z,8.00
2019-04-26T02:57:09.153Z,9.60
2019-04-26T02:58:09.179Z,7.70
2019-04-26T02:59:09.122Z,7.30
2019-04-26T03:00:09.110Z,6.50
2019-04-26T03:01:09.140Z,6.60
2019-04-26T03:02:09.090Z,8.20
2019-04-26T03:03:09.082Z,10.00
2019-04-26T03:04:09.108Z,8.70
2019-04-26T03:05:09.059Z,7.80
2019-04-26T03:06:09.048Z,7.80
2019-04-26T03:07:09.093Z,7.30
2019-04-26T03:08:09.031Z,6.60
2019-04-26T03:09:09.066Z,7.60
2019-04-26T03:10:09.035Z,7.60
2019-04-26T03:11:08.998Z,9.60
2019-04-26T03:12:09.021Z,6.30
2019-04-26T03:13:08.991Z,6.90
2019-04-26T03:14:08.967Z,7.10
2019-04-26T03:15:14.040Z,7.70
2019-04-26T03:16:09.953Z,9.60
2019-04-26T03:17:08.933Z,8.10
2019-04-26T03:18:08.944Z,10.00
2019-04-26T03:19:08.904Z,9.80
2019-04-26T03:20:08.934Z,10.20
2019-04-26T03:21:08.889Z,7.50
2019-04-26T03:22:08.879Z,6.60
2019-04-26T03:23:08.884Z,7.50
2019-04-26T03:24:08.850Z,11.20
2019-04-26T03:25:19.859Z,7.40
2019-04-26T03:26:08.838Z,9.70
2019-04-26T03:27:08.823Z,9.00
2019-04-26T03:28:08.860Z,8.80
2019-04-26T03:29:08.800Z,8.20
2019-04-26T03:30:19.972Z,9.70
2019-04-26T03:31:09.785Z,8.40
2019-04-26T03:32:15.558Z,9.10
2019-04-26T03:33:08.843Z,8.70
2019-04-26T03:34:09.942Z,6.80
2019-04-26T03:35:08.917Z,6.50
2019-04-26T03:36:08.709Z,8.80
2019-04-26T03:37:20.414Z,7.60
2019-04-26T03:38:09.705Z,7.80
2019-04-26T03:39:08.720Z,10.30
2019-04-26T03:40:08.659Z,8.60
2019-04-26T03:41:08.659Z,10.00
2019-04-26T03:42:08.644Z,9.60
2019-04-26T03:43:08.663Z,8.70
2019-04-26T03:44:09.648Z,6.70
2019-04-26T03:45:08.623Z,7.70
2019-04-26T03:46:08.585Z,9.70
2019-04-26T03:47:08.585Z,9.50
2019-04-26T03:48:08.580Z,13.20
2019-04-26T03:49:08.559Z,9.50
2019-04-26T03:50:08.562Z,10.10
2019-04-26T03:51:08.540Z,7.00
2019-04-26T03:52:08.522Z,8.50
2019-04-26T03:53:08.514Z,14.20
2019-04-26T03:54:08.494Z,11.50
2019-04-26T03:55:08.544Z,14.80
2019-04-26T03:56:08.481Z,11.40
2019-04-26T03:57:08.486Z,10.30
2019-04-26T03:58:08.458Z,12.90
2019-04-26T03:59:08.460Z,8.20
2019-04-26T04:00:08.438Z,12.10
2019-04-26T04:01:08.449Z,9.60
2019-04-26T04:02:08.425Z,10.70
2019-04-26T04:03:08.393Z,12.50
2019-04-26T04:04:08.446Z,12.70
2019-04-26T04:05:08.381Z,9.90
2019-04-26T04:06:08.369Z,13.60
2019-04-26T04:07:08.347Z,12.60
2019-04-26T04:08:08.372Z,9.20
2019-04-26T04:09:08.340Z,7.50
2019-04-26T04:10:19.335Z,9.70
2019-04-26T04:11:08.344Z,14.00
2019-04-26T04:12:11.724Z,9.10
2019-04-26T04:13:08.278Z,11.70
2019-04-26T04:14:08.409Z,10.60
2019-04-26T04:15:08.277Z,8.80
2019-04-26T04:16:08.280Z,11.50
2019-04-26T04:17:08.236Z,10.30
2019-04-26T04:18:08.252Z,11.30
2019-04-26T04:19:08.224Z,6.90
2019-04-26T04:20:08.229Z,8.70
2019-04-26T04:21:08.194Z,9.70
2019-04-26T04:22:08.255Z,12.20
2019-04-26T04:23:08.181Z,11.30
2019-04-26T04:24:08.152Z,10.70
2019-04-26T04:25:45.341Z,12.60
2019-04-26T04:26:08.184Z,9.00
2019-04-26T04:27:08.159Z,8.50
2019-04-26T04:28:08.107Z,10.00
2019-04-26T04:29:08.096Z,9.50
2019-04-26T04:30:08.094Z,8.50
2019-04-26T04:31:08.073Z,9.30
2019-04-26T04:32:08.101Z,7.90
2019-04-26T04:33:08.057Z,6.60
2019-04-26T04:34:08.036Z,9.90
2019-04-26T04:35:08.026Z,9.90
2019-04-26T04:36:08.072Z,9.60
2019-04-26T04:37:08.007Z,14.90
2019-04-26T04:38:09.844Z,7.50
2019-04-26T04:39:12.261Z,13.70
2019-04-26T04:40:07.968Z,13.50
2019-04-26T04:41:08.594Z,7.20
2019-04-26T04:42:07.942Z,7.90
2019-04-26T04:43:08.026Z,10.70
2019-04-26T04:44:07.978Z,9.20
2019-04-26T04:45:07.901Z,9.20
2019-04-26T04:46:08.101Z,7.90
2019-04-26T04:47:22.957Z,12.20
2019-04-26T04:48:08.908Z,12.20
2019-04-26T04:49:07.939Z,8.40
2019-04-26T04:50:07.869Z,9.90
2019-04-26T04:51:07.912Z,11.20
2019-04-26T04:52:07.828Z,10.50
2019-04-26T04:53:07.820Z,14.50
2019-04-26T04:54:07.867Z,12.70
2019-04-26T04:55:08.224Z,10.10
2019-04-26T04:56:07.833Z,9.40
2019-04-26T04:57:07.792Z,10.40
2019-04-26T04:58:08.802Z,9.10
2019-04-26T04:59:07.848Z,10.00
2019-04-26T05:00:07.776Z,7.20
2019-04-26T05:01:07.744Z,8.60
2019-04-26T05:02:07.758Z,10.80
2019-04-26T05:03:07.723Z,11.40
2019-04-26T05:04:07.755Z,10.50
2019-04-26T05:05:07.751Z,9.70
2019-04-26T05:06:08.107Z,9.00
2019-04-26T05:07:07.675Z,12.70
2019-04-26T05:08:07.678Z,11.20
2019-04-26T05:09:07.686Z,14.40
2019-04-26T05:10:25.860Z,10.70
2019-04-26T05:11:07.708Z,13.40
2019-04-26T05:12:07.601Z,12.60
2019-04-26T05:13:07.641Z,19.60
2019-04-26T05:14:07.612Z,12.30
2019-04-26T05:15:08.581Z,12.60
2019-04-26T05:16:07.634Z,13.20
2019-04-26T05:17:07.585Z,15.10
2019-04-26T05:18:07.581Z,12.20
2019-04-26T05:19:07.641Z,11.90
2019-04-26T05:20:07.533Z,12.30
2019-04-26T05:21:07.501Z,13.40
2019-04-26T05:22:07.518Z,14.50
2019-04-26T05:23:07.500Z,15.40
2019-04-26T05:24:07.625Z,14.50
2019-04-26T05:25:07.493Z,16.20
2019-04-26T05:26:07.452Z,17.30
2019-04-26T05:27:07.471Z,17.30
2019-04-26T05:28:07.442Z,13.30
2019-04-26T05:29:07.486Z,14.90
2019-04-26T05:30:07.460Z,14.10
2019-04-26T05:31:07.392Z,15.10
2019-04-26T05:32:07.383Z,14.60
2019-04-26T05:33:07.393Z,16.90
2019-04-26T05:34:07.384Z,17.20
2019-04-26T05:35:07.471Z,19.70
2019-04-26T05:36:07.579Z,41.40
2019-04-26T05:37:07.313Z,41.20
2019-04-26T05:38:18.002Z,15.20
2019-04-26T05:39:08.387Z,14.20
2019-04-26T05:40:07.323Z,17.10
2019-04-26T05:41:07.278Z,13.90
2019-04-26T05:42:07.289Z,14.60
2019-04-26T05:43:07.347Z,11.00
2019-04-26T05:44:07.330Z,16.00
2019-04-26T05:45:07.302Z,11.20
2019-04-26T05:46:07.279Z,9.90
2019-04-26T05:47:07.288Z,10.80
2019-04-26T05:48:11.623Z,13.70
2019-04-26T05:49:07.226Z,14.00
2019-04-26T05:50:07.181Z,11.20
2019-04-26T05:51:07.259Z,24.70
2019-04-26T05:52:10.444Z,14.10
2019-04-26T05:53:07.164Z,12.30
2019-04-26T05:54:07.206Z,13.80
2019-04-26T05:55:07.155Z,12.40
2019-04-26T05:56:07.129Z,11.40
2019-04-26T05:57:07.141Z,8.80
2019-04-26T05:58:07.101Z,12.40
2019-04-26T05:59:07.106Z,12.00
2019-04-26T06:00:07.100Z,9.40
2019-04-26T06:01:07.107Z,10.10
2019-04-26T06:02:07.071Z,10.20
2019-04-26T06:03:07.031Z,11.00
2019-04-26T06:04:07.020Z,9.40
2019-04-26T06:05:07.031Z,11.30
2019-04-26T06:06:07.034Z,13.40
2019-04-26T06:07:07.038Z,10.10
2019-04-26T06:08:06.957Z,8.70
2019-04-26T06:09:06.962Z,7.70
2019-04-26T06:10:06.966Z,8.70
2019-04-26T06:11:06.926Z,9.40
2019-04-26T06:12:06.960Z,9.40
2019-04-26T06:13:06.943Z,8.80
2019-04-26T06:14:06.886Z,9.60
2019-04-26T06:15:06.887Z,11.80
2019-04-26T06:16:06.876Z,11.30
2019-04-26T06:17:06.862Z,7.00
2019-04-26T06:18:07.003Z,7.80
2019-04-26T06:19:07.724Z,9.70
2019-04-26T06:20:06.836Z,9.10
2019-04-26T06:21:06.897Z,7.60
2019-04-26T06:22:06.806Z,10.00
2019-04-26T06:23:06.858Z,13.40
2019-04-26T06:24:06.799Z,9.60
2019-04-26T06:25:06.859Z,9.90
2019-04-26T06:26:06.819Z,12.40
2019-04-26T06:27:13.556Z,6.20
2019-04-26T06:28:07.775Z,9.20
2019-04-26T06:29:06.743Z,8.40
2019-04-26T06:30:06.747Z,9.90
2019-04-26T06:31:06.689Z,8.50
2019-04-26T06:32:06.820Z,7.90
2019-04-26T06:33:06.673Z,6.70
2019-04-26T06:34:06.659Z,6.60
2019-04-26T06:35:06.685Z,5.80
2019-04-26T06:36:06.673Z,10.40
2019-04-26T06:37:06.618Z,5.90
2019-04-26T06:38:06.626Z,9.30
2019-04-26T06:39:06.638Z,6.20
2019-04-26T06:40:06.640Z,6.70
2019-04-26T06:41:06.598Z,6.10
2019-04-26T06:42:06.566Z,8.40
2019-04-26T06:43:06.551Z,9.20
2019-04-26T06:44:06.553Z,8.00
2019-04-26T06:45:06.604Z,7.00
2019-04-26T06:46:06.533Z,9.50
2019-04-26T06:47:06.754Z,8.10
2019-04-26T06:48:06.537Z,8.00
2019-04-26T06:49:06.497Z,6.00
2019-04-26T06:50:06.508Z,7.10
2019-04-26T06:51:06.942Z,6.10
2019-04-26T06:52:08.499Z,7.00
2019-04-26T06:53:06.492Z,7.20
2019-04-26T06:54:06.430Z,8.50
2019-04-26T06:55:06.783Z,5.90
2019-04-26T06:56:07.431Z,6.00
2019-04-26T06:57:12.216Z,6.00
2019-04-26T06:58:07.252Z,7.50
2019-04-26T06:59:06.384Z,9.60
2019-04-26T07:00:06.626Z,5.80
2019-04-26T07:01:06.388Z,5.60
2019-04-26T07:02:06.400Z,5.70
2019-04-26T07:03:06.345Z,6.90
2019-04-26T07:04:06.387Z,8.00
2019-04-26T07:05:06.962Z,6.70
2019-04-26T07:06:06.620Z,6.00
2019-04-26T07:07:07.423Z,7.70
2019-04-26T07:08:06.883Z,7.30
2019-04-26T07:09:06.286Z,6.70
2019-04-26T07:10:06.353Z,7.40
2019-04-26T07:11:06.908Z,7.40
2019-04-26T07:12:07.212Z,7.30
2019-04-26T07:13:06.279Z,7.50
2019-04-26T07:14:06.878Z,7.30
2019-04-26T07:15:06.210Z,4.80
2019-04-26T07:16:17.994Z,8.70
2019-04-26T07:17:07.882Z,6.50
2019-04-26T07:18:06.423Z,5.70
2019-04-26T07:19:06.188Z,5.50
2019-04-26T07:20:06.177Z,5.00
2019-04-26T07:21:06.981Z,6.10
2019-04-26T07:22:06.216Z,7.10
2019-04-26T07:23:06.152Z,6.70
2019-04-26T07:24:06.145Z,6.00
2019-04-26T07:25:06.103Z,7.30
2019-04-26T07:26:06.182Z,7.10
2019-04-26T07:27:06.076Z,6.80
2019-04-26T07:28:09.398Z,6.70
2019-04-26T07:29:07.204Z,7.70
2019-04-26T07:30:07.116Z,7.50
2019-04-26T07:31:06.244Z,5.30
2019-04-26T07:32:06.045Z,5.30
2019-04-26T07:33:06.283Z,7.50
2019-04-26T07:34:06.002Z,6.80
2019-04-26T07:35:06.718Z,8.10
2019-04-26T07:36:06.017Z,6.60
2019-04-26T07:37:06.765Z,3.80
2019-04-26T07:38:06.902Z,5.00
2019-04-26T07:39:15.532Z,6.80
2019-04-26T07:40:07.063Z,5.70
2019-04-26T07:41:07.175Z,5.00
2019-04-26T07:42:05.946Z,7.20
2019-04-26T07:43:06.068Z,5.10
2019-04-26T07:44:05.884Z,8.40
2019-04-26T07:45:05.879Z,6.60
2019-04-26T07:46:06.002Z,6.00
2019-04-26T07:47:06.021Z,5.30
2019-04-26T07:48:05.877Z,6.30
2019-04-26T07:49:06.007Z,5.40
2019-04-26T07:50:05.839Z,5.20
2019-04-26T07:51:06.482Z,4.20
2019-04-26T07:52:06.441Z,5.10
2019-04-26T07:53:05.827Z,3.70
2019-04-26T07:54:06.677Z,6.90
2019-04-26T07:55:06.632Z,5.30
2019-04-26T07:56:05.820Z,5.80
2019-04-26T07:57:06.663Z,3.70
2019-04-26T07:58:06.891Z,5.50
2019-04-26T07:59:07.090Z,4.50
2019-04-26T08:00:06.525Z,5.30
2019-04-26T08:01:05.713Z,5.60
2019-04-26T08:02:06.652Z,6.40
2019-04-26T08:03:06.865Z,5.50
2019-04-26T08:04:05.694Z,4.30
2019-04-26T08:05:05.890Z,4.00
2019-04-26T08:06:05.832Z,4.90
2019-04-26T08:07:06.332Z,3.20
2019-04-26T08:08:06.788Z,4.40
2019-04-26T08:09:05.963Z,5.80
2019-04-26T08:10:06.011Z,3.90
2019-04-26T08:11:06.233Z,3.90
2019-04-26T08:12:06.081Z,4.50
2019-04-26T08:13:06.109Z,4.80
2019-04-26T08:14:06.201Z,3.20
2019-04-26T08:15:06.077Z,5.60
2019-04-26T08:16:06.744Z,5.30
2019-04-26T08:17:06.567Z,4.70
2019-04-26T08:18:06.579Z,4.70
2019-04-26T08:19:06.930Z,3.60
2019-04-26T08:20:09.238Z,3.30
2019-04-26T08:21:10.332Z,7.70
2019-04-26T08:22:18.300Z,6.30
2019-04-26T08:23:08.646Z,5.20
2019-04-26T08:24:06.450Z,5.60
2019-04-26T08:25:06.686Z,5.80
2019-04-26T08:26:06.551Z,3.50
2019-04-26T08:27:13.657Z,3.40
2019-04-26T08:28:07.367Z,6.00
2019-04-26T08:29:06.536Z,4.10
2019-04-26T08:30:10.248Z,4.20
2019-04-26T08:31:07.305Z,4.00
2019-04-26T08:32:05.354Z,5.90
2019-04-26T08:33:11.341Z,4.80
2019-04-26T08:34:05.885Z,6.40
2019-04-26T08:35:08.266Z,4.60
2019-04-26T08:36:07.276Z,3.80
2019-04-26T08:37:06.708Z,4.00
2019-04-26T08:38:13.567Z,4.50
2019-04-26T08:39:07.002Z,4.50
2019-04-26T08:40:05.282Z,4.90
2019-04-26T08:41:07.125Z,6.20
2019-04-26T08:42:05.250Z,5.50
2019-04-26T08:43:05.266Z,4.80
2019-04-26T08:44:05.758Z,5.90
2019-04-26T08:45:08.885Z,4.60
2019-04-26T08:46:10.089Z,3.20
2019-04-26T08:47:13.885Z,5.00
2019-04-26T08:48:06.162Z,4.00
2019-04-26T08:49:06.494Z,5.70
2019-04-26T08:50:09.692Z,4.50
2019-04-26T08:51:06.158Z,3.40
2019-04-26T08:52:14.409Z,4.70
2019-04-26T08:53:06.140Z,5.70
2019-04-26T08:54:05.108Z,4.20
2019-04-26T08:55:05.119Z,4.80
2019-04-26T08:56:05.080Z,4.10
2019-04-26T08:57:05.079Z,4.60
2019-04-26T08:58:05.789Z,4.60
2019-04-26T08:59:05.092Z,3.90
2019-04-26T09:00:05.078Z,3.10
2019-04-26T09:01:05.042Z,4.20
2019-04-26T09:02:05.010Z,3.20
2019-04-26T09:03:11.404Z,4.10
2019-04-26T09:04:05.986Z,4.80
2019-04-26T09:05:05.043Z,4.40
2019-04-26T09:06:04.968Z,3.10
2019-04-26T09:07:04.959Z,3.30
2019-04-26T09:08:04.966Z,4.80
2019-04-26T09:09:04.930Z,4.80
2019-04-26T09:10:10.732Z,5.40
2019-04-26T09:11:04.914Z,4.90
2019-04-26T09:12:08.158Z,6.00
2019-04-26T09:13:04.902Z,5.00
2019-04-26T09:14:04.878Z,3.80
2019-04-26T09:15:04.907Z,5.10
2019-04-26T09:16:04.976Z,8.10
2019-04-26T09:17:04.856Z,4.10
2019-04-26T09:18:06.074Z,2.80
2019-04-26T09:19:04.840Z,5.10
2019-04-26T09:20:08.011Z,3.90
2019-04-26T09:21:04.807Z,6.20
2019-04-26T09:22:12.917Z,4.30
2019-04-26T09:23:05.839Z,4.00
2019-04-26T09:24:04.762Z,3.60
2019-04-26T09:25:04.801Z,3.60
2019-04-26T09:26:08.715Z,7.10
2019-04-26T09:27:05.790Z,6.50
2019-04-26T09:28:04.740Z,6.90
2019-04-26T09:29:04.732Z,3.40
2019-04-26T09:30:06.145Z,5.00
2019-04-26T09:31:04.688Z,4.00
2019-04-26T09:32:04.729Z,4.50
2019-04-26T09:33:04.696Z,3.50
2019-04-26T09:34:06.288Z,3.50
2019-04-26T09:35:05.684Z,5.50
2019-04-26T09:36:04.651Z,5.70
2019-04-26T09:37:04.620Z,6.00
2019-04-26T09:38:04.597Z,7.10
2019-04-26T09:39:08.259Z,4.80
2019-04-26T09:40:10.593Z,9.50
2019-04-26T09:41:04.643Z,2.50
2019-04-26T09:42:05.941Z,6.80
2019-04-26T09:43:04.571Z,4.30
2019-04-26T09:44:04.573Z,4.30
2019-04-26T09:45:04.539Z,4.00
2019-04-26T09:46:04.593Z,5.40
2019-04-26T09:47:04.506Z,5.20
2019-04-26T09:48:04.529Z,4.80
2019-04-26T09:49:07.146Z,3.60
2019-04-26T09:50:04.510Z,6.60
2019-04-26T09:51:04.465Z,5.10
2019-04-26T09:52:04.472Z,6.70
2019-04-26T09:53:04.452Z,3.30
2019-04-26T09:54:04.426Z,4.10
2019-04-26T09:55:04.520Z,4.00
2019-04-26T09:56:04.521Z,3.60
2019-04-26T09:57:04.388Z,8.00
2019-04-26T09:58:04.398Z,4.80
2019-04-26T09:59:05.807Z,4.90
2019-04-26T10:00:05.362Z,3.10
2019-04-26T10:01:06.179Z,4.90
2019-04-26T10:02:04.342Z,3.90
2019-04-26T10:03:05.428Z,2.80
2019-04-26T10:04:04.313Z,3.20
2019-04-26T10:05:04.388Z,3.50
2019-04-26T10:06:04.301Z,3.40
2019-04-26T10:07:04.317Z,4.10
2019-04-26T10:08:04.270Z,4.50
2019-04-26T10:09:04.279Z,5.50
2019-04-26T10:10:04.325Z,4.40
2019-04-26T10:11:05.686Z,5.20
2019-04-26T10:12:04.255Z,4.40
2019-04-26T10:13:04.240Z,5.10
2019-04-26T10:14:04.217Z,4.40
2019-04-26T10:15:04.227Z,4.70
2019-04-26T10:16:04.353Z,7.10
2019-04-26T10:17:04.199Z,5.60
2019-04-26T10:18:07.996Z,6.10
2019-04-26T10:19:04.151Z,4.50
2019-04-26T10:20:04.162Z,5.50
2019-04-26T10:21:04.204Z,3.40
2019-04-26T10:22:04.111Z,5.30
2019-04-26T10:23:04.120Z,4.30
2019-04-26T10:24:04.084Z,3.90
2019-04-26T10:25:07.699Z,3.70
2019-04-26T10:26:05.152Z,4.10
2019-04-26T10:27:04.942Z,6.30
2019-04-26T10:28:04.050Z,3.70
2019-04-26T10:29:04.036Z,5.60
2019-04-26T10:30:08.975Z,2.80
2019-04-26T10:31:05.025Z,4.10
2019-04-26T10:32:04.033Z,5.60
2019-04-26T10:33:04.000Z,5.20
2019-04-26T10:34:07.698Z,6.80
2019-04-26T10:35:03.971Z,3.70
2019-04-26T10:36:04.016Z,4.60
2019-04-26T10:37:06.024Z,6.00
2019-04-26T10:38:03.952Z,3.60
2019-04-26T10:39:03.917Z,4.90
2019-04-26T10:40:03.943Z,4.90
2019-04-26T10:41:03.903Z,5.40
2019-04-26T10:42:03.909Z,3.90
2019-04-26T10:43:03.880Z,4.30
2019-04-26T10:44:03.923Z,4.10
2019-04-26T10:45:03.891Z,6.00
2019-04-26T10:46:03.847Z,3.60
2019-04-26T10:47:04.473Z,6.30
2019-04-26T10:48:03.853Z,5.80
2019-04-26T10:49:09.695Z,3.80
2019-04-26T10:50:04.879Z,5.60
2019-04-26T10:51:07.272Z,5.20
2019-04-26T10:52:04.820Z,4.00
2019-04-26T10:53:03.768Z,5.50
2019-04-26T10:54:05.885Z,5.20
2019-04-26T10:55:04.296Z,4.20
2019-04-26T10:56:03.740Z,4.00
2019-04-26T10:57:03.735Z,5.10
2019-04-26T10:58:03.745Z,4.30
2019-04-26T10:59:06.126Z,4.90
2019-04-26T11:00:04.723Z,3.70
2019-04-26T11:01:03.675Z,3.30
2019-04-26T11:02:03.670Z,5.20
2019-04-26T11:03:04.415Z,4.00
2019-04-26T11:04:03.678Z,4.80
2019-04-26T11:05:03.677Z,4.60
2019-04-26T11:06:03.672Z,3.10
2019-04-26T11:07:03.610Z,4.00
2019-04-26T11:08:04.592Z,4.80
2019-04-26T11:09:03.614Z,4.20
2019-04-26T11:10:04.252Z,3.60
2019-04-26T11:11:03.644Z,4.60
2019-04-26T11:12:03.556Z,5.30
2019-04-26T11:13:03.557Z,4.70
2019-04-26T11:14:03.534Z,4.20
2019-04-26T11:15:06.077Z,6.80
2019-04-26T11:16:07.131Z,5.80
2019-04-26T11:17:03.554Z,4.00
2019-04-26T11:18:03.515Z,4.40
2019-04-26T11:19:03.487Z,6.40
2019-04-26T11:20:06.348Z,4.50
2019-04-26T11:21:04.498Z,3.40
2019-04-26T11:22:03.450Z,5.30
2019-04-26T11:23:03.427Z,5.10
2019-04-26T11:24:03.442Z,5.20
2019-04-26T11:25:03.433Z,3.40
2019-04-26T11:26:03.429Z,3.80
2019-04-26T11:27:05.403Z,6.20
2019-04-26T11:28:04.365Z,4.80
2019-04-26T11:29:03.416Z,7.40
2019-04-26T11:30:11.604Z,4.60
2019-04-26T11:31:04.386Z,5.50
2019-04-26T11:32:04.291Z,6.00
2019-04-26T11:33:03.323Z,4.30
2019-04-26T11:34:05.500Z,7.00
2019-04-26T11:35:03.296Z,5.90
2019-04-26T11:36:07.052Z,4.60
2019-04-26T11:37:04.814Z,6.50
2019-04-26T11:38:03.266Z,3.70
2019-04-26T11:39:05.692Z,3.90
2019-04-26T11:40:03.804Z,5.10
2019-04-26T11:41:21.361Z,4.30
2019-04-26T11:42:03.218Z,5.20
2019-04-26T11:43:03.222Z,5.30
2019-04-26T11:44:03.351Z,5.10
2019-04-26T11:45:06.413Z,4.20
2019-04-26T11:46:04.645Z,6.80
2019-04-26T11:47:07.525Z,6.20
2019-04-26T11:48:03.421Z,5.50
2019-04-26T11:49:06.772Z,8.40
2019-04-26T11:50:03.200Z,4.80
2019-04-26T11:51:03.151Z,4.30
2019-04-26T11:52:04.088Z,4.80
2019-04-26T11:53:06.305Z,5.40
2019-04-26T11:54:04.113Z,4.30
2019-04-26T11:55:03.062Z,6.70
2019-04-26T11:56:04.494Z,5.80
2019-04-26T11:57:03.038Z,3.90
2019-04-26T11:58:03.100Z,6.00
2019-04-26T11:59:03.025Z,5.50
2019-04-26T12:00:05.583Z,7.00
2019-04-26T12:01:03.003Z,4.20
2019-04-26T12:02:02.989Z,7.90
2019-04-26T12:03:02.998Z,4.90
2019-04-26T12:04:02.958Z,5.30
2019-04-26T12:05:02.953Z,4.90
2019-04-26T12:06:02.949Z,6.70
2019-04-26T12:07:02.937Z,4.80
2019-04-26T12:08:02.974Z,8.00
2019-04-26T12:09:02.918Z,3.80
2019-04-26T12:10:05.890Z,6.50
2019-04-26T12:11:03.918Z,3.90
2019-04-26T12:12:04.947Z,7.70
2019-04-26T12:13:05.812Z,5.90
2019-04-26T12:14:04.124Z,6.90
2019-04-26T12:15:04.054Z,7.40
2019-04-26T12:16:02.826Z,4.30
2019-04-26T12:17:02.813Z,5.60
2019-04-26T12:18:05.512Z,3.80
2019-04-26T12:19:03.847Z,4.10
2019-04-26T12:20:02.799Z,4.60
2019-04-26T12:21:02.794Z,4.50
2019-04-26T12:22:04.250Z,5.80
2019-04-26T12:23:03.748Z,5.70
2019-04-26T12:24:02.793Z,5.80
2019-04-26T12:25:03.411Z,6.70
2019-04-26T12:26:02.720Z,9.10
2019-04-26T12:27:02.741Z,7.60
2019-04-26T12:28:06.170Z,7.70
2019-04-26T12:29:02.705Z,7.70
2019-04-26T12:30:02.712Z,7.80
2019-04-26T12:31:02.664Z,6.00
2019-04-26T12:32:02.647Z,9.20
2019-04-26T12:33:02.650Z,6.20
2019-04-26T12:34:02.627Z,7.00
2019-04-26T12:35:02.605Z,8.20
2019-04-26T12:36:02.614Z,5.70
2019-04-26T12:37:02.598Z,5.20
2019-04-26T12:38:02.580Z,5.10
2019-04-26T12:39:03.311Z,7.50
2019-04-26T12:40:02.569Z,5.70
2019-04-26T12:41:02.582Z,7.00
2019-04-26T12:42:02.571Z,6.10
2019-04-26T12:43:02.536Z,7.00
2019-04-26T12:44:03.247Z,5.50
2019-04-26T12:45:02.504Z,5.50
2019-04-26T12:46:02.508Z,5.30
2019-04-26T12:47:03.441Z,5.10
2019-04-26T12:48:02.487Z,12.30
2019-04-26T12:49:02.458Z,7.40
2019-04-26T12:50:02.453Z,6.20
2019-04-26T12:51:02.497Z,6.50
2019-04-26T12:52:02.484Z,7.90
2019-04-26T12:53:02.545Z,8.20
2019-04-26T12:54:03.763Z,5.60
2019-04-26T12:55:03.421Z,4.60
2019-04-26T12:56:02.413Z,6.60
2019-04-26T12:57:05.790Z,6.50
2019-04-26T12:58:02.427Z,6.40
2019-04-26T12:59:02.340Z,6.70
2019-04-26T13:00:03.692Z,5.60
2019-04-26T13:01:02.354Z,5.30
2019-04-26T13:02:05.909Z,6.60
2019-04-26T13:03:02.312Z,5.40
2019-04-26T13:04:02.606Z,6.30
2019-04-26T13:05:02.279Z,7.30
2019-04-26T13:06:02.353Z,7.60
2019-04-26T13:07:06.753Z,6.00
2019-04-26T13:08:02.253Z,11.10
2019-04-26T13:09:02.289Z,7.60
2019-04-26T13:10:02.319Z,6.50
2019-04-26T13:11:23.270Z,6.30
2019-04-26T13:12:02.829Z,7.00
2019-04-26T13:13:02.785Z,5.60
2019-04-26T13:14:02.215Z,5.70
2019-04-26T13:15:02.197Z,6.70
2019-04-26T13:16:02.163Z,7.50